sensor_id;sensor_type;location;lat;lon;timestamp;P1;durP1;ratioP1;P2;durP2;ratioP2
16593;SDS011;8410;52.532;13.336;2022-12-17T00:02:13;70.60;;;38.63;;
16593;SDS011;8410;52.532;13.336;2022-12-17T00:04:59;58.00;;;36.63;;
16593;SDS011;8410;52.532;13.336;2022-12-17T00:07:44;68.13;;;40.00;;
16593;SDS011;8410;52.532;13.336;2022-12-17T00:10:44;55.17;;;34.43;;
16593;SDS011;8410;52.532;13.336;2022-12-17T00:13:30;60.67;;;43.47;;
16593;SDS011;8410;52.532;13.336;2022-12-17T00:16:16;55.20;;;38.47;;
16593;SDS011;8410;52.532;13.336;2022-12-17T00:19:01;62.37;;;39.70;;
16593;SDS011;8410;52.532;13.336;2022-12-17T00:21:46;52.70;;;36.40;;
16593;SDS011;8410;52.532;13.336;2022-12-17T00:24:31;56.17;;;39.97;;
16593;SDS011;8410;52.532;13.336;2022-12-17T00:27:17;57.67;;;38.27;;
16593;SDS011;8410;52.532;13.336;2022-12-17T00:30:04;68.83;;;41.43;;
16593;SDS011;8410;52.532;13.336;2022-12-17T00:32:49;73.07;;;41.23;;
16593;SDS011;8410;52.532;13.336;2022-12-17T00:35:35;78.97;;;40.07;;
16593;SDS011;8410;52.532;13.336;2022-12-17T00:38:21;77.23;;;38.37;;
16593;SDS011;8410;52.532;13.336;2022-12-17T00:41:06;80.80;;;37.63;;
16593;SDS011;8410;52.532;13.336;2022-12-17T00:43:51;89.20;;;39.70;;
16593;SDS011;8410;52.532;13.336;2022-12-17T00:46:37;84.87;;;36.83;;
16593;SDS011;8410;52.532;13.336;2022-12-17T00:49:23;74.40;;;35.17;;
16593;SDS011;8410;52.532;13.336;2022-12-17T00:52:08;63.90;;;30.40;;
16593;SDS011;8410;52.532;13.336;2022-12-17T00:54:53;60.10;;;29.10;;
16593;SDS011;8410;52.532;13.336;2022-12-17T00:57:37;65.13;;;31.00;;
16593;SDS011;8410;52.532;13.336;2022-12-17T01:00:22;65.17;;;31.60;;
16593;SDS011;8410;52.532;13.336;2022-12-17T01:03:10;61.80;;;29.80;;
16593;SDS011;8410;52.532;13.336;2022-12-17T01:05:56;53.90;;;25.13;;
16593;SDS011;8410;52.532;13.336;2022-12-17T01:08:44;62.37;;;27.27;;
16593;SDS011;8410;52.532;13.336;2022-12-17T01:11:29;78.43;;;31.30;;
16593;SDS011;8410;52.532;13.336;2022-12-17T01:14:14;68.00;;;30.23;;
16593;SDS011;8410;52.532;13.336;2022-12-17T01:16:56;62.67;;;30.10;;
16593;SDS011;8410;52.532;13.336;2022-12-17T01:19:42;78.10;;;37.10;;
16593;SDS011;8410;52.532;13.336;2022-12-17T01:22:27;67.73;;;29.40;;
16593;SDS011;8410;52.532;13.336;2022-12-17T01:25:13;64.63;;;32.20;;
16593;SDS011;8410;52.532;13.336;2022-12-17T01:27:58;66.57;;;31.00;;
16593;SDS011;8410;52.532;13.336;2022-12-17T01:30:43;65.13;;;32.47;;
16593;SDS011;8410;52.532;13.336;2022-12-17T01:33:28;65.73;;;30.00;;
16593;SDS011;8410;52.532;13.336;2022-12-17T01:36:14;64.40;;;31.40;;
16593;SDS011;8410;52.532;13.336;2022-12-17T01:38:59;70.07;;;31.30;;
16593;SDS011;8410;52.532;13.336;2022-12-17T01:41:45;67.50;;;27.70;;
16593;SDS011;8410;52.532;13.336;2022-12-17T01:44:44;58.83;;;29.33;;
16593;SDS011;8410;52.532;13.336;2022-12-17T01:47:29;63.97;;;28.23;;
16593;SDS011;8410;52.532;13.336;2022-12-17T01:50:17;56.00;;;26.33;;
16593;SDS011;8410;52.532;13.336;2022-12-17T01:53:05;63.33;;;30.20;;
16593;SDS011;8410;52.532;13.336;2022-12-17T01:55:52;54.90;;;26.40;;
16593;SDS011;8410;52.532;13.336;2022-12-17T01:58:37;60.00;;;27.17;;
16593;SDS011;8410;52.532;13.336;2022-12-17T02:01:23;58.87;;;27.67;;
16593;SDS011;8410;52.532;13.336;2022-12-17T02:04:08;52.43;;;27.47;;
16593;SDS011;8410;52.532;13.336;2022-12-17T02:06:57;51.83;;;26.43;;
16593;SDS011;8410;52.532;13.336;2022-12-17T02:09:57;59.00;;;27.77;;
16593;SDS011;8410;52.532;13.336;2022-12-17T02:12:53;53.73;;;24.90;;
16593;SDS011;8410;52.532;13.336;2022-12-17T02:15:45;54.10;;;25.97;;
16593;SDS011;8410;52.532;13.336;2022-12-17T02:18:34;63.13;;;24.83;;
16593;SDS011;8410;52.532;13.336;2022-12-17T02:21:23;56.97;;;27.50;;
16593;SDS011;8410;52.532;13.336;2022-12-17T02:24:12;52.30;;;25.93;;
16593;SDS011;8410;52.532;13.336;2022-12-17T02:27:06;47.93;;;23.60;;
16593;SDS011;8410;52.532;13.336;2022-12-17T02:29:53;47.20;;;26.93;;
16593;SDS011;8410;52.532;13.336;2022-12-17T02:32:42;46.33;;;24.83;;
16593;SDS011;8410;52.532;13.336;2022-12-17T02:35:30;47.93;;;25.90;;
16593;SDS011;8410;52.532;13.336;2022-12-17T02:38:18;46.43;;;22.63;;
16593;SDS011;8410;52.532;13.336;2022-12-17T02:41:01;41.97;;;20.60;;
16593;SDS011;8410;52.532;13.336;2022-12-17T02:43:49;44.60;;;20.83;;
16593;SDS011;8410;52.532;13.336;2022-12-17T02:46:37;48.00;;;23.50;;
16593;SDS011;8410;52.532;13.336;2022-12-17T02:49:24;46.10;;;24.43;;
16593;SDS011;8410;52.532;13.336;2022-12-17T02:52:10;44.30;;;23.90;;
16593;SDS011;8410;52.532;13.336;2022-12-17T02:55:00;48.80;;;22.73;;
16593;SDS011;8410;52.532;13.336;2022-12-17T02:57:45;43.03;;;21.83;;
16593;SDS011;8410;52.532;13.336;2022-12-17T03:00:31;45.23;;;21.33;;
16593;SDS011;8410;52.532;13.336;2022-12-17T03:03:17;44.00;;;23.07;;
16593;SDS011;8410;52.532;13.336;2022-12-17T03:06:17;45.10;;;21.37;;
16593;SDS011;8410;52.532;13.336;2022-12-17T03:09:02;43.10;;;21.67;;
16593;SDS011;8410;52.532;13.336;2022-12-17T03:11:48;41.73;;;22.53;;
16593;SDS011;8410;52.532;13.336;2022-12-17T03:14:33;38.83;;;22.43;;
16593;SDS011;8410;52.532;13.336;2022-12-17T03:17:20;37.80;;;20.03;;
16593;SDS011;8410;52.532;13.336;2022-12-17T03:20:05;40.20;;;23.40;;
16593;SDS011;8410;52.532;13.336;2022-12-17T03:22:51;40.93;;;24.83;;
16593;SDS011;8410;52.532;13.336;2022-12-17T03:25:36;39.70;;;23.90;;
16593;SDS011;8410;52.532;13.336;2022-12-17T03:28:21;43.57;;;23.97;;
16593;SDS011;8410;52.532;13.336;2022-12-17T03:31:07;41.07;;;23.57;;
16593;SDS011;8410;52.532;13.336;2022-12-17T03:34:07;39.63;;;19.40;;
16593;SDS011;8410;52.532;13.336;2022-12-17T03:36:52;42.73;;;22.90;;
16593;SDS011;8410;52.532;13.336;2022-12-17T03:39:37;41.33;;;20.20;;
16593;SDS011;8410;52.532;13.336;2022-12-17T03:42:23;39.97;;;21.47;;
16593;SDS011;8410;52.532;13.336;2022-12-17T03:45:08;39.80;;;20.47;;
16593;SDS011;8410;52.532;13.336;2022-12-17T03:48:02;44.23;;;23.37;;
16593;SDS011;8410;52.532;13.336;2022-12-17T03:50:50;49.20;;;25.20;;
16593;SDS011;8410;52.532;13.336;2022-12-17T03:53:35;43.47;;;23.13;;
16593;SDS011;8410;52.532;13.336;2022-12-17T03:56:19;59.27;;;24.53;;
16593;SDS011;8410;52.532;13.336;2022-12-17T03:59:05;50.27;;;22.37;;
16593;SDS011;8410;52.532;13.336;2022-12-17T04:01:50;59.90;;;22.93;;
16593;SDS011;8410;52.532;13.336;2022-12-17T04:04:50;48.37;;;24.10;;
16593;SDS011;8410;52.532;13.336;2022-12-17T04:07:43;49.80;;;20.07;;
16593;SDS011;8410;52.532;13.336;2022-12-17T04:10:28;47.40;;;23.23;;
16593;SDS011;8410;52.532;13.336;2022-12-17T04:13:13;50.00;;;23.87;;
16593;SDS011;8410;52.532;13.336;2022-12-17T04:16:05;59.40;;;25.10;;
16593;SDS011;8410;52.532;13.336;2022-12-17T04:18:51;59.73;;;24.43;;
16593;SDS011;8410;52.532;13.336;2022-12-17T04:21:36;58.20;;;26.43;;
16593;SDS011;8410;52.532;13.336;2022-12-17T04:24:22;55.87;;;26.93;;
16593;SDS011;8410;52.532;13.336;2022-12-17T04:27:07;55.07;;;25.57;;
16593;SDS011;8410;52.532;13.336;2022-12-17T04:29:52;58.53;;;25.57;;
16593;SDS011;8410;52.532;13.336;2022-12-17T04:32:37;54.40;;;23.33;;
16593;SDS011;8410;52.532;13.336;2022-12-17T04:35:31;54.80;;;24.40;;
16593;SDS011;8410;52.532;13.336;2022-12-17T04:38:16;48.07;;;22.73;;
16593;SDS011;8410;52.532;13.336;2022-12-17T04:41:02;46.10;;;22.13;;
16593;SDS011;8410;52.532;13.336;2022-12-17T04:43:47;48.50;;;21.40;;
16593;SDS011;8410;52.532;13.336;2022-12-17T04:46:32;52.40;;;24.87;;
16593;SDS011;8410;52.532;13.336;2022-12-17T04:49:17;48.67;;;23.20;;
16593;SDS011;8410;52.532;13.336;2022-12-17T04:52:02;51.60;;;25.03;;
16593;SDS011;8410;52.532;13.336;2022-12-17T04:54:47;43.70;;;21.47;;
16593;SDS011;8410;52.532;13.336;2022-12-17T04:57:36;42.23;;;20.70;;
16593;SDS011;8410;52.532;13.336;2022-12-17T05:00:21;37.90;;;18.10;;
16593;SDS011;8410;52.532;13.336;2022-12-17T05:03:08;39.20;;;21.77;;
16593;SDS011;8410;52.532;13.336;2022-12-17T05:05:55;43.27;;;20.97;;
16593;SDS011;8410;52.532;13.336;2022-12-17T05:08:40;44.63;;;19.87;;
16593;SDS011;8410;52.532;13.336;2022-12-17T05:11:26;45.23;;;24.83;;
16593;SDS011;8410;52.532;13.336;2022-12-17T05:14:12;41.53;;;23.20;;
16593;SDS011;8410;52.532;13.336;2022-12-17T05:16:58;45.10;;;23.37;;
16593;SDS011;8410;52.532;13.336;2022-12-17T05:19:54;49.17;;;23.13;;
16593;SDS011;8410;52.532;13.336;2022-12-17T05:22:39;41.80;;;22.37;;
16593;SDS011;8410;52.532;13.336;2022-12-17T05:25:24;39.70;;;21.60;;
16593;SDS011;8410;52.532;13.336;2022-12-17T05:28:09;42.13;;;22.40;;
16593;SDS011;8410;52.532;13.336;2022-12-17T05:30:55;36.97;;;21.43;;
16593;SDS011;8410;52.532;13.336;2022-12-17T05:33:40;38.13;;;22.00;;
16593;SDS011;8410;52.532;13.336;2022-12-17T05:36:25;36.57;;;21.27;;
16593;SDS011;8410;52.532;13.336;2022-12-17T05:39:10;38.50;;;21.23;;
16593;SDS011;8410;52.532;13.336;2022-12-17T05:41:55;39.80;;;21.77;;
16593;SDS011;8410;52.532;13.336;2022-12-17T05:44:40;40.50;;;22.03;;
16593;SDS011;8410;52.532;13.336;2022-12-17T05:47:26;38.77;;;20.83;;
16593;SDS011;8410;52.532;13.336;2022-12-17T05:50:12;34.00;;;20.60;;
16593;SDS011;8410;52.532;13.336;2022-12-17T05:52:59;37.67;;;20.80;;
16593;SDS011;8410;52.532;13.336;2022-12-17T05:55:47;32.23;;;18.13;;
16593;SDS011;8410;52.532;13.336;2022-12-17T05:58:33;35.23;;;20.33;;
16593;SDS011;8410;52.532;13.336;2022-12-17T06:01:18;33.80;;;19.17;;
16593;SDS011;8410;52.532;13.336;2022-12-17T06:04:04;38.53;;;20.83;;
16593;SDS011;8410;52.532;13.336;2022-12-17T06:06:49;38.30;;;22.17;;
16593;SDS011;8410;52.532;13.336;2022-12-17T06:09:34;32.93;;;20.37;;
16593;SDS011;8410;52.532;13.336;2022-12-17T06:12:18;43.77;;;22.30;;
16593;SDS011;8410;52.532;13.336;2022-12-17T06:15:04;39.70;;;22.00;;
16593;SDS011;8410;52.532;13.336;2022-12-17T06:17:52;42.77;;;22.07;;
16593;SDS011;8410;52.532;13.336;2022-12-17T06:20:43;39.50;;;21.90;;
16593;SDS011;8410;52.532;13.336;2022-12-17T06:23:28;43.47;;;25.17;;
16593;SDS011;8410;52.532;13.336;2022-12-17T06:26:13;43.77;;;24.13;;
16593;SDS011;8410;52.532;13.336;2022-12-17T06:28:58;42.80;;;22.27;;
16593;SDS011;8410;52.532;13.336;2022-12-17T06:31:43;40.07;;;20.80;;
16593;SDS011;8410;52.532;13.336;2022-12-17T06:34:28;39.47;;;22.30;;
16593;SDS011;8410;52.532;13.336;2022-12-17T06:37:14;38.70;;;20.57;;
16593;SDS011;8410;52.532;13.336;2022-12-17T06:39:59;42.63;;;23.13;;
16593;SDS011;8410;52.532;13.336;2022-12-17T06:42:50;40.40;;;22.63;;
16593;SDS011;8410;52.532;13.336;2022-12-17T06:45:36;40.93;;;21.90;;
16593;SDS011;8410;52.532;13.336;2022-12-17T06:48:21;44.27;;;23.73;;
16593;SDS011;8410;52.532;13.336;2022-12-17T06:51:06;40.97;;;22.60;;
16593;SDS011;8410;52.532;13.336;2022-12-17T06:53:52;37.80;;;21.40;;
16593;SDS011;8410;52.532;13.336;2022-12-17T06:56:37;41.23;;;22.53;;
16593;SDS011;8410;52.532;13.336;2022-12-17T06:59:22;46.93;;;23.03;;
16593;SDS011;8410;52.532;13.336;2022-12-17T07:02:07;43.60;;;23.80;;
16593;SDS011;8410;52.532;13.336;2022-12-17T07:04:54;43.67;;;25.50;;
16593;SDS011;8410;52.532;13.336;2022-12-17T07:07:39;44.77;;;25.83;;
16593;SDS011;8410;52.532;13.336;2022-12-17T07:10:25;39.90;;;22.17;;
16593;SDS011;8410;52.532;13.336;2022-12-17T07:13:10;45.80;;;24.90;;
16593;SDS011;8410;52.532;13.336;2022-12-17T07:15:55;42.40;;;23.47;;
16593;SDS011;8410;52.532;13.336;2022-12-17T07:18:40;45.20;;;24.80;;
16593;SDS011;8410;52.532;13.336;2022-12-17T07:21:25;40.50;;;23.47;;
16593;SDS011;8410;52.532;13.336;2022-12-17T07:24:10;43.37;;;23.57;;
16593;SDS011;8410;52.532;13.336;2022-12-17T07:26:57;39.50;;;23.27;;
16593;SDS011;8410;52.532;13.336;2022-12-17T07:29:42;42.83;;;23.80;;
16593;SDS011;8410;52.532;13.336;2022-12-17T07:32:27;38.13;;;23.27;;
16593;SDS011;8410;52.532;13.336;2022-12-17T07:35:12;36.77;;;21.03;;
16593;SDS011;8410;52.532;13.336;2022-12-17T07:37:57;42.17;;;23.80;;
16593;SDS011;8410;52.532;13.336;2022-12-17T07:40:43;37.73;;;21.90;;
16593;SDS011;8410;52.532;13.336;2022-12-17T07:43:29;39.23;;;23.37;;
16593;SDS011;8410;52.532;13.336;2022-12-17T07:46:18;41.07;;;23.80;;
16593;SDS011;8410;52.532;13.336;2022-12-17T07:49:03;38.83;;;25.10;;
16593;SDS011;8410;52.532;13.336;2022-12-17T07:51:51;38.93;;;23.93;;
16593;SDS011;8410;52.532;13.336;2022-12-17T07:54:36;42.57;;;24.70;;
16593;SDS011;8410;52.532;13.336;2022-12-17T07:57:21;40.23;;;24.87;;
16593;SDS011;8410;52.532;13.336;2022-12-17T08:00:08;35.37;;;22.27;;
16593;SDS011;8410;52.532;13.336;2022-12-17T08:02:55;36.97;;;22.67;;
16593;SDS011;8410;52.532;13.336;2022-12-17T08:05:41;34.53;;;20.60;;
16593;SDS011;8410;52.532;13.336;2022-12-17T08:08:26;33.33;;;19.63;;
16593;SDS011;8410;52.532;13.336;2022-12-17T08:11:10;36.00;;;22.70;;
16593;SDS011;8410;52.532;13.336;2022-12-17T08:13:54;34.73;;;21.60;;
16593;SDS011;8410;52.532;13.336;2022-12-17T08:16:40;36.90;;;21.30;;
16593;SDS011;8410;52.532;13.336;2022-12-17T08:19:26;37.43;;;23.73;;
16593;SDS011;8410;52.532;13.336;2022-12-17T08:22:11;38.33;;;22.80;;
16593;SDS011;8410;52.532;13.336;2022-12-17T08:24:56;38.77;;;23.10;;
16593;SDS011;8410;52.532;13.336;2022-12-17T08:27:41;38.47;;;23.27;;
16593;SDS011;8410;52.532;13.336;2022-12-17T08:30:29;45.57;;;23.73;;
16593;SDS011;8410;52.532;13.336;2022-12-17T08:33:15;42.80;;;25.07;;
16593;SDS011;8410;52.532;13.336;2022-12-17T08:36:01;41.47;;;25.43;;
16593;SDS011;8410;52.532;13.336;2022-12-17T08:38:46;43.37;;;23.93;;
16593;SDS011;8410;52.532;13.336;2022-12-17T08:41:31;37.97;;;23.77;;
16593;SDS011;8410;52.532;13.336;2022-12-17T08:44:21;43.83;;;26.17;;
16593;SDS011;8410;52.532;13.336;2022-12-17T08:47:06;49.90;;;28.80;;
16593;SDS011;8410;52.532;13.336;2022-12-17T08:49:53;49.43;;;27.37;;
16593;SDS011;8410;52.532;13.336;2022-12-17T08:52:38;47.23;;;27.93;;
16593;SDS011;8410;52.532;13.336;2022-12-17T08:55:23;51.33;;;29.43;;
16593;SDS011;8410;52.532;13.336;2022-12-17T08:58:08;49.10;;;25.97;;
16593;SDS011;8410;52.532;13.336;2022-12-17T09:00:52;93.07;;;66.20;;
16593;SDS011;8410;52.532;13.336;2022-12-17T09:03:38;59.67;;;42.93;;
16593;SDS011;8410;52.532;13.336;2022-12-17T09:06:24;49.03;;;34.97;;
16593;SDS011;8410;52.532;13.336;2022-12-17T09:09:09;52.43;;;36.17;;
16593;SDS011;8410;52.532;13.336;2022-12-17T09:11:55;51.77;;;38.07;;
16593;SDS011;8410;52.532;13.336;2022-12-17T09:14:36;53.40;;;38.27;;
16593;SDS011;8410;52.532;13.336;2022-12-17T09:17:21;41.77;;;29.63;;
16593;SDS011;8410;52.532;13.336;2022-12-17T09:20:07;44.30;;;31.17;;
16593;SDS011;8410;52.532;13.336;2022-12-17T09:22:56;46.30;;;31.47;;
16593;SDS011;8410;52.532;13.336;2022-12-17T09:25:42;36.83;;;29.43;;
16593;SDS011;8410;52.532;13.336;2022-12-17T09:28:28;37.03;;;27.30;;
16593;SDS011;8410;52.532;13.336;2022-12-17T09:31:13;36.33;;;27.30;;
16593;SDS011;8410;52.532;13.336;2022-12-17T09:34:02;43.40;;;29.10;;
16593;SDS011;8410;52.532;13.336;2022-12-17T09:36:47;50.33;;;32.40;;
16593;SDS011;8410;52.532;13.336;2022-12-17T09:39:34;51.17;;;31.73;;
16593;SDS011;8410;52.532;13.336;2022-12-17T09:42:22;55.80;;;30.53;;
16593;SDS011;8410;52.532;13.336;2022-12-17T09:45:20;55.00;;;32.07;;
16593;SDS011;8410;52.532;13.336;2022-12-17T09:48:10;57.07;;;30.60;;
16593;SDS011;8410;52.532;13.336;2022-12-17T09:51:04;58.63;;;32.73;;
16593;SDS011;8410;52.532;13.336;2022-12-17T09:53:57;57.33;;;30.20;;
16593;SDS011;8410;52.532;13.336;2022-12-17T09:56:43;50.33;;;27.93;;
16593;SDS011;8410;52.532;13.336;2022-12-17T09:59:32;56.40;;;28.97;;
16593;SDS011;8410;52.532;13.336;2022-12-17T10:02:18;50.40;;;27.67;;
16593;SDS011;8410;52.532;13.336;2022-12-17T10:05:08;49.60;;;26.33;;
16593;SDS011;8410;52.532;13.336;2022-12-17T10:08:11;50.67;;;30.63;;
16593;SDS011;8410;52.532;13.336;2022-12-17T10:11:00;59.90;;;27.70;;
16593;SDS011;8410;52.532;13.336;2022-12-17T10:14:00;57.03;;;28.73;;
16593;SDS011;8410;52.532;13.336;2022-12-17T10:16:47;49.77;;;26.80;;
16593;SDS011;8410;52.532;13.336;2022-12-17T10:19:38;55.23;;;30.23;;
16593;SDS011;8410;52.532;13.336;2022-12-17T10:22:25;58.43;;;30.53;;
16593;SDS011;8410;52.532;13.336;2022-12-17T10:25:13;59.53;;;30.27;;
16593;SDS011;8410;52.532;13.336;2022-12-17T10:28:01;54.47;;;30.23;;
16593;SDS011;8410;52.532;13.336;2022-12-17T10:30:49;66.00;;;34.50;;
16593;SDS011;8410;52.532;13.336;2022-12-17T10:33:36;60.43;;;31.67;;
16593;SDS011;8410;52.532;13.336;2022-12-17T10:36:23;65.67;;;31.50;;
16593;SDS011;8410;52.532;13.336;2022-12-17T10:39:14;57.77;;;29.03;;
16593;SDS011;8410;52.532;13.336;2022-12-17T10:42:01;51.13;;;28.23;;
16593;SDS011;8410;52.532;13.336;2022-12-17T10:44:46;57.80;;;29.43;;
16593;SDS011;8410;52.532;13.336;2022-12-17T10:47:33;60.00;;;29.87;;
16593;SDS011;8410;52.532;13.336;2022-12-17T10:50:18;54.40;;;29.80;;
16593;SDS011;8410;52.532;13.336;2022-12-17T10:53:05;60.00;;;32.43;;
16593;SDS011;8410;52.532;13.336;2022-12-17T10:56:01;61.87;;;31.43;;
16593;SDS011;8410;52.532;13.336;2022-12-17T10:58:48;63.03;;;31.13;;
16593;SDS011;8410;52.532;13.336;2022-12-17T11:01:35;61.43;;;31.63;;
16593;SDS011;8410;52.532;13.336;2022-12-17T11:04:24;57.57;;;28.77;;
16593;SDS011;8410;52.532;13.336;2022-12-17T11:07:11;57.47;;;30.23;;
16593;SDS011;8410;52.532;13.336;2022-12-17T11:10:01;58.87;;;30.50;;
16593;SDS011;8410;52.532;13.336;2022-12-17T11:12:49;57.90;;;31.00;;
16593;SDS011;8410;52.532;13.336;2022-12-17T11:15:39;62.93;;;33.23;;
16593;SDS011;8410;52.532;13.336;2022-12-17T11:18:28;55.97;;;31.33;;
16593;SDS011;8410;52.532;13.336;2022-12-17T11:21:20;56.33;;;30.03;;
16593;SDS011;8410;52.532;13.336;2022-12-17T11:24:09;67.10;;;35.33;;
16593;SDS011;8410;52.532;13.336;2022-12-17T11:26:58;68.17;;;32.23;;
16593;SDS011;8410;52.532;13.336;2022-12-17T11:29:51;65.00;;;32.80;;
16593;SDS011;8410;52.532;13.336;2022-12-17T11:32:43;60.40;;;31.43;;
16593;SDS011;8410;52.532;13.336;2022-12-17T11:35:40;60.00;;;32.50;;
16593;SDS011;8410;52.532;13.336;2022-12-17T11:38:38;61.13;;;31.10;;
16593;SDS011;8410;52.532;13.336;2022-12-17T11:41:27;64.67;;;32.57;;
16593;SDS011;8410;52.532;13.336;2022-12-17T11:44:23;59.20;;;32.33;;
16593;SDS011;8410;52.532;13.336;2022-12-17T11:47:23;62.83;;;30.30;;
16593;SDS011;8410;52.532;13.336;2022-12-17T11:50:17;64.77;;;31.83;;
16593;SDS011;8410;52.532;13.336;2022-12-17T11:53:14;68.53;;;35.00;;
16593;SDS011;8410;52.532;13.336;2022-12-17T11:56:20;63.67;;;32.07;;
16593;SDS011;8410;52.532;13.336;2022-12-17T11:59:11;67.97;;;32.57;;
16593;SDS011;8410;52.532;13.336;2022-12-17T12:02:05;59.87;;;29.90;;
16593;SDS011;8410;52.532;13.336;2022-12-17T12:05:09;60.60;;;30.77;;
16593;SDS011;8410;52.532;13.336;2022-12-17T12:08:09;58.30;;;28.40;;
16593;SDS011;8410;52.532;13.336;2022-12-17T12:11:04;60.13;;;28.97;;
16593;SDS011;8410;52.532;13.336;2022-12-17T12:13:59;58.57;;;30.70;;
16593;SDS011;8410;52.532;13.336;2022-12-17T12:16:51;60.53;;;31.93;;
16593;SDS011;8410;52.532;13.336;2022-12-17T12:19:58;58.90;;;30.60;;
16593;SDS011;8410;52.532;13.336;2022-12-17T12:22:49;58.63;;;29.80;;
16593;SDS011;8410;52.532;13.336;2022-12-17T12:25:46;60.90;;;28.33;;
16593;SDS011;8410;52.532;13.336;2022-12-17T12:28:43;57.43;;;30.20;;
16593;SDS011;8410;52.532;13.336;2022-12-17T12:31:36;59.13;;;30.10;;
16593;SDS011;8410;52.532;13.336;2022-12-17T12:34:26;57.50;;;28.67;;
16593;SDS011;8410;52.532;13.336;2022-12-17T12:37:16;66.10;;;28.90;;
16593;SDS011;8410;52.532;13.336;2022-12-17T12:40:04;51.87;;;25.73;;
16593;SDS011;8410;52.532;13.336;2022-12-17T12:42:59;60.13;;;28.67;;
16593;SDS011;8410;52.532;13.336;2022-12-17T12:45:54;56.87;;;28.07;;
16593;SDS011;8410;52.532;13.336;2022-12-17T12:48:44;61.70;;;30.77;;
16593;SDS011;8410;52.532;13.336;2022-12-17T12:51:36;54.83;;;26.90;;
16593;SDS011;8410;52.532;13.336;2022-12-17T12:54:23;54.27;;;26.63;;
16593;SDS011;8410;52.532;13.336;2022-12-17T12:57:27;56.13;;;29.30;;
16593;SDS011;8410;52.532;13.336;2022-12-17T13:00:21;55.00;;;29.07;;
16593;SDS011;8410;52.532;13.336;2022-12-17T13:03:17;59.83;;;31.33;;
16593;SDS011;8410;52.532;13.336;2022-12-17T13:06:09;53.57;;;26.70;;
16593;SDS011;8410;52.532;13.336;2022-12-17T13:08:38;54.53;;;28.53;;
16593;SDS011;8410;52.532;13.336;2022-12-17T13:11:11;58.90;;;26.63;;
16593;SDS011;8410;52.532;13.336;2022-12-17T13:13:53;58.63;;;28.37;;
16593;SDS011;8410;52.532;13.336;2022-12-17T13:16:31;54.83;;;27.20;;
16593;SDS011;8410;52.532;13.336;2022-12-17T13:19:15;65.13;;;28.90;;
16593;SDS011;8410;52.532;13.336;2022-12-17T13:21:47;56.47;;;27.40;;
16593;SDS011;8410;52.532;13.336;2022-12-17T13:24:21;53.57;;;27.57;;
16593;SDS011;8410;52.532;13.336;2022-12-17T13:26:51;53.33;;;27.10;;
16593;SDS011;8410;52.532;13.336;2022-12-17T13:29:20;52.57;;;28.07;;
16593;SDS011;8410;52.532;13.336;2022-12-17T13:31:57;58.40;;;28.47;;
16593;SDS011;8410;52.532;13.336;2022-12-17T13:34:33;61.63;;;29.17;;
16593;SDS011;8410;52.532;13.336;2022-12-17T13:37:13;50.70;;;27.40;;
16593;SDS011;8410;52.532;13.336;2022-12-17T13:39:51;53.33;;;27.73;;
16593;SDS011;8410;52.532;13.336;2022-12-17T13:42:28;56.10;;;28.10;;
16593;SDS011;8410;52.532;13.336;2022-12-17T13:44:57;59.57;;;28.20;;
16593;SDS011;8410;52.532;13.336;2022-12-17T13:47:26;53.07;;;28.10;;
16593;SDS011;8410;52.532;13.336;2022-12-17T13:49:56;57.33;;;30.53;;
16593;SDS011;8410;52.532;13.336;2022-12-17T13:52:46;62.47;;;30.17;;
16593;SDS011;8410;52.532;13.336;2022-12-17T13:55:16;60.13;;;31.17;;
16593;SDS011;8410;52.532;13.336;2022-12-17T13:57:46;62.53;;;33.47;;
16593;SDS011;8410;52.532;13.336;2022-12-17T14:00:18;62.70;;;29.50;;
16593;SDS011;8410;52.532;13.336;2022-12-17T14:02:48;58.20;;;28.63;;
16593;SDS011;8410;52.532;13.336;2022-12-17T14:05:23;56.93;;;27.80;;
16593;SDS011;8410;52.532;13.336;2022-12-17T14:07:54;63.13;;;30.77;;
16593;SDS011;8410;52.532;13.336;2022-12-17T14:10:24;66.90;;;31.80;;
16593;SDS011;8410;52.532;13.336;2022-12-17T14:12:57;65.20;;;32.57;;
16593;SDS011;8410;52.532;13.336;2022-12-17T14:15:29;60.83;;;30.53;;
16593;SDS011;8410;52.532;13.336;2022-12-17T14:17:57;58.50;;;29.33;;
16593;SDS011;8410;52.532;13.336;2022-12-17T14:20:26;56.03;;;28.57;;
16593;SDS011;8410;52.532;13.336;2022-12-17T14:22:59;60.00;;;29.70;;
16593;SDS011;8410;52.532;13.336;2022-12-17T14:25:31;63.73;;;28.77;;
16593;SDS011;8410;52.532;13.336;2022-12-17T14:28:02;57.70;;;28.53;;
16593;SDS011;8410;52.532;13.336;2022-12-17T14:30:32;59.47;;;27.90;;
16593;SDS011;8410;52.532;13.336;2022-12-17T14:33:23;56.73;;;26.53;;
16593;SDS011;8410;52.532;13.336;2022-12-17T14:35:53;54.63;;;26.43;;
16593;SDS011;8410;52.532;13.336;2022-12-17T14:38:26;54.77;;;25.83;;
16593;SDS011;8410;52.532;13.336;2022-12-17T14:41:13;64.70;;;29.70;;
16593;SDS011;8410;52.532;13.336;2022-12-17T14:44:00;54.23;;;26.37;;
16593;SDS011;8410;52.532;13.336;2022-12-17T14:46:29;63.23;;;28.13;;
16593;SDS011;8410;52.532;13.336;2022-12-17T14:48:58;52.90;;;27.87;;
16593;SDS011;8410;52.532;13.336;2022-12-17T14:51:28;60.43;;;29.40;;
16593;SDS011;8410;52.532;13.336;2022-12-17T14:54:06;62.47;;;28.70;;
16593;SDS011;8410;52.532;13.336;2022-12-17T14:56:45;62.13;;;30.17;;
16593;SDS011;8410;52.532;13.336;2022-12-17T14:59:30;60.30;;;28.77;;
16593;SDS011;8410;52.532;13.336;2022-12-17T15:01:59;65.20;;;28.17;;
16593;SDS011;8410;52.532;13.336;2022-12-17T15:04:30;61.83;;;29.13;;
16593;SDS011;8410;52.532;13.336;2022-12-17T15:06:58;63.43;;;28.80;;
16593;SDS011;8410;52.532;13.336;2022-12-17T15:09:27;67.23;;;28.43;;
16593;SDS011;8410;52.532;13.336;2022-12-17T15:11:55;59.43;;;27.13;;
16593;SDS011;8410;52.532;13.336;2022-12-17T15:14:22;56.50;;;28.33;;
16593;SDS011;8410;52.532;13.336;2022-12-17T15:16:50;60.77;;;27.37;;
16593;SDS011;8410;52.532;13.336;2022-12-17T15:19:17;58.70;;;27.83;;
16593;SDS011;8410;52.532;13.336;2022-12-17T15:21:45;70.70;;;30.77;;
16593;SDS011;8410;52.532;13.336;2022-12-17T15:24:13;64.00;;;29.27;;
16593;SDS011;8410;52.532;13.336;2022-12-17T15:26:46;65.07;;;30.37;;
16593;SDS011;8410;52.532;13.336;2022-12-17T15:29:13;57.90;;;27.30;;
16593;SDS011;8410;52.532;13.336;2022-12-17T15:31:41;62.87;;;28.17;;
16593;SDS011;8410;52.532;13.336;2022-12-17T15:34:08;55.53;;;26.23;;
16593;SDS011;8410;52.532;13.336;2022-12-17T15:36:37;63.33;;;28.03;;
16593;SDS011;8410;52.532;13.336;2022-12-17T15:39:04;63.23;;;28.10;;
16593;SDS011;8410;52.532;13.336;2022-12-17T15:41:32;63.37;;;29.90;;
16593;SDS011;8410;52.532;13.336;2022-12-17T15:44:18;59.80;;;29.70;;
16593;SDS011;8410;52.532;13.336;2022-12-17T15:46:45;64.27;;;31.93;;
16593;SDS011;8410;52.532;13.336;2022-12-17T15:49:13;65.47;;;29.70;;
16593;SDS011;8410;52.532;13.336;2022-12-17T15:51:40;59.57;;;27.03;;
16593;SDS011;8410;52.532;13.336;2022-12-17T15:54:08;61.40;;;28.80;;
16593;SDS011;8410;52.532;13.336;2022-12-17T15:56:35;58.80;;;28.63;;
16593;SDS011;8410;52.532;13.336;2022-12-17T15:59:03;57.23;;;29.00;;
16593;SDS011;8410;52.532;13.336;2022-12-17T16:01:31;49.97;;;25.53;;
16593;SDS011;8410;52.532;13.336;2022-12-17T16:04:00;55.97;;;26.73;;